createdAt,value
2016-10-07T11:26:26.028Z,508
2016-10-07T11:27:35.085Z,416
2016-10-07T11:27:58.474Z,572
2016-10-07T11:29:08.257Z,588
2016-10-07T11:30:18.051Z,580
2016-10-07T11:31:27.498Z,604
2016-10-07T11:32:36.884Z,592
2016-10-07T11:33:46.630Z,488
2016-10-07T11:34:56.261Z,284
2016-10-07T11:36:06.065Z,556
2016-10-07T11:37:15.981Z,564
2016-10-07T11:38:25.795Z,628
2016-10-07T11:39:35.569Z,732
2016-10-07T11:40:45.081Z,760
2016-10-07T11:41:55.451Z,784
2016-10-07T11:43:04.888Z,776
2016-10-07T11:44:14.571Z,884
2016-10-07T11:45:23.942Z,908
2016-10-07T11:46:32.980Z,912
2016-10-07T11:47:42.133Z,696
2016-10-07T11:48:53.073Z,908
2016-10-07T11:50:02.686Z,812
2016-10-07T11:51:12.882Z,972
2016-10-07T11:52:22.866Z,1012
2016-10-07T11:53:32.823Z,1008
2016-10-07T11:54:43.351Z,1000
2016-10-07T11:55:54.186Z,848
2016-10-07T11:57:03.675Z,980
2016-10-07T11:58:13.607Z,836
2016-10-07T11:59:25.363Z,840
2016-10-07T12:00:35.993Z,856
2016-10-07T12:01:45.626Z,1000
2016-10-07T12:02:55.575Z,1004
2016-10-07T12:04:06.097Z,1020
2016-10-07T12:05:16.307Z,1036
2016-10-07T12:06:27.197Z,1048
2016-10-07T12:07:36.648Z,1040
2016-10-07T12:08:47.185Z,1040
2016-10-07T12:09:58.464Z,960
2016-10-07T12:11:08.914Z,1000
2016-10-07T12:12:18.747Z,992
2016-10-07T12:13:29.134Z,968
2016-10-07T12:14:38.843Z,960
2016-10-07T12:15:49.914Z,952
2016-10-07T12:17:00.367Z,952
2016-10-07T12:18:10.280Z,956
2016-10-07T12:19:20.172Z,968
2016-10-07T12:20:30.331Z,964
2016-10-07T12:21:39.598Z,852
2016-10-07T12:22:50.040Z,848
2016-10-07T12:24:00.466Z,956
2016-10-07T12:25:10.787Z,964
2016-10-07T12:26:20.739Z,936
2016-10-07T12:27:29.699Z,932
2016-10-07T12:28:40.206Z,928
2016-10-07T12:29:50.370Z,824
2016-10-07T12:31:01.468Z,732
2016-10-07T12:32:12.591Z,848
2016-10-07T12:33:22.938Z,896
2016-10-07T12:34:33.239Z,908
2016-10-07T12:35:43.239Z,892
2016-10-07T12:36:53.630Z,928
2016-10-07T12:38:03.910Z,1040
2016-10-07T12:39:14.352Z,1512
2016-10-07T12:40:24.686Z,1684
2016-10-07T12:41:36.098Z,1700
2016-10-07T12:42:46.345Z,3456
2016-10-07T12:43:56.560Z,3768
2016-10-07T12:45:06.853Z,3872
2016-10-07T12:46:18.090Z,2668
2016-10-07T12:47:28.388Z,1676
2016-10-07T12:48:42.771Z,1416
2016-10-07T12:49:56.042Z,1232
2016-10-07T12:51:08.359Z,1300
2016-10-07T12:52:19.088Z,1124
2016-10-07T12:53:28.762Z,1032
2016-10-07T12:54:39.370Z,1016
2016-10-07T12:55:50.722Z,948
2016-10-07T12:57:02.719Z,884
2016-10-07T12:58:13.197Z,864
2016-10-07T12:59:24.204Z,880
2016-10-07T13:00:35.185Z,812
